sensor_id;sensor_type;location;lat;lon;timestamp;temperature;humidity
9209;DHT22;4639;48.862;9.188;2023-03-02T00:01:55;3.40;99.90
9209;DHT22;4639;48.862;9.188;2023-03-02T00:05:10;3.30;99.90
9209;DHT22;4639;48.862;9.188;2023-03-02T00:07:27;3.30;99.90
9209;DHT22;4639;48.862;9.188;2023-03-02T00:09:54;3.40;99.90
9209;DHT22;4639;48.862;9.188;2023-03-02T00:12:19;3.30;99.90
9209;DHT22;4639;48.862;9.188;2023-03-02T00:14:45;3.30;99.90
9209;DHT22;4639;48.862;9.188;2023-03-02T00:17:10;3.30;99.90
9209;DHT22;4639;48.862;9.188;2023-03-02T00:19:36;3.20;99.90
9209;DHT22;4639;48.862;9.188;2023-03-02T00:22:03;3.20;99.90
9209;DHT22;4639;48.862;9.188;2023-03-02T00:24:29;3.20;99.90
9209;DHT22;4639;48.862;9.188;2023-03-02T00:26:55;3.20;99.90
9209;DHT22;4639;48.862;9.188;2023-03-02T00:29:20;3.20;99.90
9209;DHT22;4639;48.862;9.188;2023-03-02T00:31:46;3.20;99.90
9209;DHT22;4639;48.862;9.188;2023-03-02T00:34:12;3.20;99.90
9209;DHT22;4639;48.862;9.188;2023-03-02T00:36:37;3.10;99.90
9209;DHT22;4639;48.862;9.188;2023-03-02T00:39:03;3.20;99.90
9209;DHT22;4639;48.862;9.188;2023-03-02T00:41:29;3.20;99.90
9209;DHT22;4639;48.862;9.188;2023-03-02T00:43:55;3.20;99.90
9209;DHT22;4639;48.862;9.188;2023-03-02T00:46:23;3.20;99.90
9209;DHT22;4639;48.862;9.188;2023-03-02T00:48:49;3.20;99.90
9209;DHT22;4639;48.862;9.188;2023-03-02T00:51:16;3.20;99.90
9209;DHT22;4639;48.862;9.188;2023-03-02T00:53:42;3.10;99.90
9209;DHT22;4639;48.862;9.188;2023-03-02T00:56:08;3.00;99.90
9209;DHT22;4639;48.862;9.188;2023-03-02T00:58:34;3.00;99.90
9209;DHT22;4639;48.862;9.188;2023-03-02T01:01:05;2.90;99.90
9209;DHT22;4639;48.862;9.188;2023-03-02T01:03:31;3.00;99.90
9209;DHT22;4639;48.862;9.188;2023-03-02T01:05:57;3.00;99.90
9209;DHT22;4639;48.862;9.188;2023-03-02T01:08:23;2.90;99.90
9209;DHT22;4639;48.862;9.188;2023-03-02T01:10:50;2.90;99.90
9209;DHT22;4639;48.862;9.188;2023-03-02T01:13:18;2.90;99.90
9209;DHT22;4639;48.862;9.188;2023-03-02T01:15:43;2.90;99.90
9209;DHT22;4639;48.862;9.188;2023-03-02T01:18:09;2.80;99.90
9209;DHT22;4639;48.862;9.188;2023-03-02T01:20:35;2.80;99.90
9209;DHT22;4639;48.862;9.188;2023-03-02T01:23:01;2.80;99.90
9209;DHT22;4639;48.862;9.188;2023-03-02T01:25:26;2.80;99.90
9209;DHT22;4639;48.862;9.188;2023-03-02T01:27:52;2.70;99.90
9209;DHT22;4639;48.862;9.188;2023-03-02T01:30:17;2.80;99.90
9209;DHT22;4639;48.862;9.188;2023-03-02T01:32:43;2.80;99.90
9209;DHT22;4639;48.862;9.188;2023-03-02T01:35:09;2.80;99.90
9209;DHT22;4639;48.862;9.188;2023-03-02T01:37:35;2.70;99.90
9209;DHT22;4639;48.862;9.188;2023-03-02T01:40:00;2.70;99.90
9209;DHT22;4639;48.862;9.188;2023-03-02T01:42:36;2.60;99.90
9209;DHT22;4639;48.862;9.188;2023-03-02T01:45:02;2.60;99.90
9209;DHT22;4639;48.862;9.188;2023-03-02T01:50:17;2.60;99.90
9209;DHT22;4639;48.862;9.188;2023-03-02T01:52:43;2.60;99.90
9209;DHT22;4639;48.862;9.188;2023-03-02T01:55:12;2.60;99.90
9209;DHT22;4639;48.862;9.188;2023-03-02T01:57:41;2.70;99.90
9209;DHT22;4639;48.862;9.188;2023-03-02T02:00:16;2.70;99.90
9209;DHT22;4639;48.862;9.188;2023-03-02T02:02:43;2.60;99.90
9209;DHT22;4639;48.862;9.188;2023-03-02T02:05:17;2.60;99.90
9209;DHT22;4639;48.862;9.188;2023-03-02T02:07:43;2.60;99.90
9209;DHT22;4639;48.862;9.188;2023-03-02T02:10:09;2.60;99.90
9209;DHT22;4639;48.862;9.188;2023-03-02T02:12:35;2.60;99.90
9209;DHT22;4639;48.862;9.188;2023-03-02T02:15:01;2.70;99.90
9209;DHT22;4639;48.862;9.188;2023-03-02T02:17:28;2.70;99.90
9209;DHT22;4639;48.862;9.188;2023-03-02T02:23:20;2.50;99.90
9209;DHT22;4639;48.862;9.188;2023-03-02T02:31:07;2.40;99.90
9209;DHT22;4639;48.862;9.188;2023-03-02T02:33:36;2.40;99.90
9209;DHT22;4639;48.862;9.188;2023-03-02T02:36:06;2.50;99.90
9209;DHT22;4639;48.862;9.188;2023-03-02T02:38:33;2.50;99.90
9209;DHT22;4639;48.862;9.188;2023-03-02T02:41:03;2.40;99.90
9209;DHT22;4639;48.862;9.188;2023-03-02T02:43:31;2.40;99.90
9209;DHT22;4639;48.862;9.188;2023-03-02T02:45:58;2.40;99.90
9209;DHT22;4639;48.862;9.188;2023-03-02T02:48:25;2.40;99.90
9209;DHT22;4639;48.862;9.188;2023-03-02T02:50:55;2.40;99.90
9209;DHT22;4639;48.862;9.188;2023-03-02T02:53:54;2.40;99.90
9209;DHT22;4639;48.862;9.188;2023-03-02T02:56:29;2.40;99.90
9209;DHT22;4639;48.862;9.188;2023-03-02T02:59:05;2.40;99.90
9209;DHT22;4639;48.862;9.188;2023-03-02T03:01:32;2.40;99.90
9209;DHT22;4639;48.862;9.188;2023-03-02T03:04:03;2.40;99.90
9209;DHT22;4639;48.862;9.188;2023-03-02T03:06:32;2.30;99.90
9209;DHT22;4639;48.862;9.188;2023-03-02T03:09:05;2.30;99.90
9209;DHT22;4639;48.862;9.188;2023-03-02T03:11:34;2.30;99.90
9209;DHT22;4639;48.862;9.188;2023-03-02T03:14:18;2.30;99.90
9209;DHT22;4639;48.862;9.188;2023-03-02T03:16:45;2.30;99.90
9209;DHT22;4639;48.862;9.188;2023-03-02T03:21:50;2.20;99.90
9209;DHT22;4639;48.862;9.188;2023-03-02T03:24:17;2.10;99.90
9209;DHT22;4639;48.862;9.188;2023-03-02T03:26:43;2.20;99.90
9209;DHT22;4639;48.862;9.188;2023-03-02T03:29:10;2.20;99.90
9209;DHT22;4639;48.862;9.188;2023-03-02T03:31:35;2.10;99.90
9209;DHT22;4639;48.862;9.188;2023-03-02T03:34:01;2.20;99.90
9209;DHT22;4639;48.862;9.188;2023-03-02T03:36:28;2.20;99.90
9209;DHT22;4639;48.862;9.188;2023-03-02T03:38:54;2.10;99.90
9209;DHT22;4639;48.862;9.188;2023-03-02T03:41:20;2.00;99.90
9209;DHT22;4639;48.862;9.188;2023-03-02T03:43:46;1.90;99.90
9209;DHT22;4639;48.862;9.188;2023-03-02T03:46:11;1.90;99.90
9209;DHT22;4639;48.862;9.188;2023-03-02T03:48:37;1.80;99.90
9209;DHT22;4639;48.862;9.188;2023-03-02T03:51:03;1.80;99.90
9209;DHT22;4639;48.862;9.188;2023-03-02T03:53:29;1.80;99.90
9209;DHT22;4639;48.862;9.188;2023-03-02T03:55:55;1.90;99.90
9209;DHT22;4639;48.862;9.188;2023-03-02T03:58:22;1.90;99.90
9209;DHT22;4639;48.862;9.188;2023-03-02T04:00:48;1.80;99.90
9209;DHT22;4639;48.862;9.188;2023-03-02T04:03:14;1.70;99.90
9209;DHT22;4639;48.862;9.188;2023-03-02T04:05:40;1.80;99.90
9209;DHT22;4639;48.862;9.188;2023-03-02T04:08:06;1.80;99.90
9209;DHT22;4639;48.862;9.188;2023-03-02T04:10:32;1.80;99.90
9209;DHT22;4639;48.862;9.188;2023-03-02T04:12:58;1.70;99.90
9209;DHT22;4639;48.862;9.188;2023-03-02T04:15:24;1.70;99.90
9209;DHT22;4639;48.862;9.188;2023-03-02T04:17:50;1.70;99.90
9209;DHT22;4639;48.862;9.188;2023-03-02T04:20:17;1.70;99.90
9209;DHT22;4639;48.862;9.188;2023-03-02T04:22:44;1.70;99.90
9209;DHT22;4639;48.862;9.188;2023-03-02T04:25:12;1.60;99.90
9209;DHT22;4639;48.862;9.188;2023-03-02T04:27:38;1.60;99.90
9209;DHT22;4639;48.862;9.188;2023-03-02T04:30:05;1.50;99.90
9209;DHT22;4639;48.862;9.188;2023-03-02T04:32:31;1.60;99.90
9209;DHT22;4639;48.862;9.188;2023-03-02T04:34:57;1.60;99.90
9209;DHT22;4639;48.862;9.188;2023-03-02T04:37:22;1.60;99.90
9209;DHT22;4639;48.862;9.188;2023-03-02T04:39:48;1.60;99.90
9209;DHT22;4639;48.862;9.188;2023-03-02T04:42:19;1.60;99.90
9209;DHT22;4639;48.862;9.188;2023-03-02T04:44:46;1.50;99.90
9209;DHT22;4639;48.862;9.188;2023-03-02T04:47:12;1.50;99.90
9209;DHT22;4639;48.862;9.188;2023-03-02T04:49:37;1.40;99.90
9209;DHT22;4639;48.862;9.188;2023-03-02T04:52:03;1.30;99.90
9209;DHT22;4639;48.862;9.188;2023-03-02T04:54:29;1.30;99.90
9209;DHT22;4639;48.862;9.188;2023-03-02T04:56:55;1.30;99.90
9209;DHT22;4639;48.862;9.188;2023-03-02T04:59:24;1.40;99.90
9209;DHT22;4639;48.862;9.188;2023-03-02T05:01:51;1.30;99.90
9209;DHT22;4639;48.862;9.188;2023-03-02T05:04:17;1.40;99.90
9209;DHT22;4639;48.862;9.188;2023-03-02T05:06:43;1.40;99.90
9209;DHT22;4639;48.862;9.188;2023-03-02T05:09:09;1.40;99.90
9209;DHT22;4639;48.862;9.188;2023-03-02T05:11:35;1.40;99.90
9209;DHT22;4639;48.862;9.188;2023-03-02T05:14:03;1.40;99.90
9209;DHT22;4639;48.862;9.188;2023-03-02T05:16:31;1.40;99.90
9209;DHT22;4639;48.862;9.188;2023-03-02T05:18:58;1.30;99.90
9209;DHT22;4639;48.862;9.188;2023-03-02T05:21:24;1.20;99.90
9209;DHT22;4639;48.862;9.188;2023-03-02T05:23:50;1.00;99.90
9209;DHT22;4639;48.862;9.188;2023-03-02T05:26:16;1.30;99.90
9209;DHT22;4639;48.862;9.188;2023-03-02T05:28:43;1.30;99.90
9209;DHT22;4639;48.862;9.188;2023-03-02T05:31:12;1.40;99.90
9209;DHT22;4639;48.862;9.188;2023-03-02T05:33:38;1.40;99.90
9209;DHT22;4639;48.862;9.188;2023-03-02T05:36:04;1.40;99.90
9209;DHT22;4639;48.862;9.188;2023-03-02T05:38:30;1.30;99.90
9209;DHT22;4639;48.862;9.188;2023-03-02T05:40:56;1.30;99.90
9209;DHT22;4639;48.862;9.188;2023-03-02T05:43:21;1.30;99.90
9209;DHT22;4639;48.862;9.188;2023-03-02T05:45:48;1.30;99.90
9209;DHT22;4639;48.862;9.188;2023-03-02T05:48:14;1.30;99.90
9209;DHT22;4639;48.862;9.188;2023-03-02T05:50:40;1.40;99.90
9209;DHT22;4639;48.862;9.188;2023-03-02T05:53:06;1.40;99.90
9209;DHT22;4639;48.862;9.188;2023-03-02T05:55:31;1.30;99.90
9209;DHT22;4639;48.862;9.188;2023-03-02T05:58:06;1.30;99.90
9209;DHT22;4639;48.862;9.188;2023-03-02T06:00:31;1.30;99.90
9209;DHT22;4639;48.862;9.188;2023-03-02T06:02:57;1.40;99.90
9209;DHT22;4639;48.862;9.188;2023-03-02T06:05:22;1.40;99.90
9209;DHT22;4639;48.862;9.188;2023-03-02T06:07:49;1.40;99.90
9209;DHT22;4639;48.862;9.188;2023-03-02T06:11:02;1.40;99.90
9209;DHT22;4639;48.862;9.188;2023-03-02T06:13:29;1.50;99.90
9209;DHT22;4639;48.862;9.188;2023-03-02T06:15:55;1.50;99.90
9209;DHT22;4639;48.862;9.188;2023-03-02T06:18:21;1.60;99.90
9209;DHT22;4639;48.862;9.188;2023-03-02T06:20:48;1.60;99.90
9209;DHT22;4639;48.862;9.188;2023-03-02T06:23:13;1.60;99.90
9209;DHT22;4639;48.862;9.188;2023-03-02T06:25:39;1.50;99.90
9209;DHT22;4639;48.862;9.188;2023-03-02T06:28:08;1.60;99.90
9209;DHT22;4639;48.862;9.188;2023-03-02T06:30:33;1.70;99.90
9209;DHT22;4639;48.862;9.188;2023-03-02T06:32:59;1.70;99.90
9209;DHT22;4639;48.862;9.188;2023-03-02T06:35:24;1.60;99.90
9209;DHT22;4639;48.862;9.188;2023-03-02T06:37:50;1.70;99.90
9209;DHT22;4639;48.862;9.188;2023-03-02T06:40:16;1.70;99.90
9209;DHT22;4639;48.862;9.188;2023-03-02T06:42:42;1.70;99.90
9209;DHT22;4639;48.862;9.188;2023-03-02T06:45:08;1.80;99.90
9209;DHT22;4639;48.862;9.188;2023-03-02T06:47:34;1.80;99.90
9209;DHT22;4639;48.862;9.188;2023-03-02T06:50:00;1.90;99.90
9209;DHT22;4639;48.862;9.188;2023-03-02T06:52:25;1.90;99.90
9209;DHT22;4639;48.862;9.188;2023-03-02T06:54:52;1.90;99.90
9209;DHT22;4639;48.862;9.188;2023-03-02T06:57:17;1.90;99.90
9209;DHT22;4639;48.862;9.188;2023-03-02T06:59:43;1.90;99.90
9209;DHT22;4639;48.862;9.188;2023-03-02T07:02:10;1.90;99.90
9209;DHT22;4639;48.862;9.188;2023-03-02T07:04:35;1.90;99.90
9209;DHT22;4639;48.862;9.188;2023-03-02T07:07:01;2.00;99.90
9209;DHT22;4639;48.862;9.188;2023-03-02T07:09:27;2.00;99.90
9209;DHT22;4639;48.862;9.188;2023-03-02T07:11:55;2.10;99.90
9209;DHT22;4639;48.862;9.188;2023-03-02T07:14:21;2.10;99.90
9209;DHT22;4639;48.862;9.188;2023-03-02T07:16:46;2.10;99.90
9209;DHT22;4639;48.862;9.188;2023-03-02T07:19:12;2.20;99.90
9209;DHT22;4639;48.862;9.188;2023-03-02T07:21:38;2.20;99.90
9209;DHT22;4639;48.862;9.188;2023-03-02T07:24:04;2.20;99.90
9209;DHT22;4639;48.862;9.188;2023-03-02T07:26:30;2.20;99.90
9209;DHT22;4639;48.862;9.188;2023-03-02T07:28:55;2.20;99.90
9209;DHT22;4639;48.862;9.188;2023-03-02T07:31:24;2.20;99.90
9209;DHT22;4639;48.862;9.188;2023-03-02T07:33:49;2.30;99.90
9209;DHT22;4639;48.862;9.188;2023-03-02T07:36:15;2.30;99.90
9209;DHT22;4639;48.862;9.188;2023-03-02T07:38:41;2.40;99.90
9209;DHT22;4639;48.862;9.188;2023-03-02T07:41:08;2.40;99.90
9209;DHT22;4639;48.862;9.188;2023-03-02T07:43:34;2.50;99.90
9209;DHT22;4639;48.862;9.188;2023-03-02T07:46:02;2.50;99.90
9209;DHT22;4639;48.862;9.188;2023-03-02T07:48:29;2.50;99.90
9209;DHT22;4639;48.862;9.188;2023-03-02T07:51:02;2.50;99.90
9209;DHT22;4639;48.862;9.188;2023-03-02T07:53:28;2.70;99.90
9209;DHT22;4639;48.862;9.188;2023-03-02T07:55:54;2.80;99.90
9209;DHT22;4639;48.862;9.188;2023-03-02T07:58:20;2.90;99.90
9209;DHT22;4639;48.862;9.188;2023-03-02T08:00:48;2.80;99.90
9209;DHT22;4639;48.862;9.188;2023-03-02T08:03:14;2.80;99.90
9209;DHT22;4639;48.862;9.188;2023-03-02T08:05:39;2.80;99.90
9209;DHT22;4639;48.862;9.188;2023-03-02T08:08:05;2.90;99.90
9209;DHT22;4639;48.862;9.188;2023-03-02T08:10:33;3.10;99.90
9209;DHT22;4639;48.862;9.188;2023-03-02T08:12:59;3.10;99.90
9209;DHT22;4639;48.862;9.188;2023-03-02T08:15:24;3.20;99.90
9209;DHT22;4639;48.862;9.188;2023-03-02T08:17:50;3.40;99.90
9209;DHT22;4639;48.862;9.188;2023-03-02T08:20:15;3.60;99.90
9209;DHT22;4639;48.862;9.188;2023-03-02T08:22:41;3.70;99.90
9209;DHT22;4639;48.862;9.188;2023-03-02T08:25:07;3.90;99.90
9209;DHT22;4639;48.862;9.188;2023-03-02T08:27:32;4.30;99.90
9209;DHT22;4639;48.862;9.188;2023-03-02T08:29:58;4.80;99.90
9209;DHT22;4639;48.862;9.188;2023-03-02T08:32:24;5.20;99.90
9209;DHT22;4639;48.862;9.188;2023-03-02T08:34:51;5.50;99.90
9209;DHT22;4639;48.862;9.188;2023-03-02T08:37:18;5.80;99.90
9209;DHT22;4639;48.862;9.188;2023-03-02T08:39:44;6.20;99.90
9209;DHT22;4639;48.862;9.188;2023-03-02T08:42:09;6.60;99.90
9209;DHT22;4639;48.862;9.188;2023-03-02T08:44:35;7.10;99.90
9209;DHT22;4639;48.862;9.188;2023-03-02T08:47:00;7.20;99.90
9209;DHT22;4639;48.862;9.188;2023-03-02T08:49:26;7.40;99.90
9209;DHT22;4639;48.862;9.188;2023-03-02T08:51:52;7.50;99.90
9209;DHT22;4639;48.862;9.188;2023-03-02T08:54:20;7.70;99.90
9209;DHT22;4639;48.862;9.188;2023-03-02T08:56:46;7.80;99.90
9209;DHT22;4639;48.862;9.188;2023-03-02T08:59:13;8.00;99.90
9209;DHT22;4639;48.862;9.188;2023-03-02T09:01:39;8.10;99.90
9209;DHT22;4639;48.862;9.188;2023-03-02T09:04:06;8.30;99.90
9209;DHT22;4639;48.862;9.188;2023-03-02T09:06:36;8.70;99.90
9209;DHT22;4639;48.862;9.188;2023-03-02T09:09:04;9.00;99.90
9209;DHT22;4639;48.862;9.188;2023-03-02T09:11:30;9.10;99.90
9209;DHT22;4639;48.862;9.188;2023-03-02T09:13:55;9.30;99.90
9209;DHT22;4639;48.862;9.188;2023-03-02T09:16:21;9.50;99.90
9209;DHT22;4639;48.862;9.188;2023-03-02T09:18:48;9.70;99.90
9209;DHT22;4639;48.862;9.188;2023-03-02T09:21:14;9.80;99.90
9209;DHT22;4639;48.862;9.188;2023-03-02T09:23:40;10.10;99.90
9209;DHT22;4639;48.862;9.188;2023-03-02T09:26:06;10.30;99.90
9209;DHT22;4639;48.862;9.188;2023-03-02T09:28:31;10.50;99.90
9209;DHT22;4639;48.862;9.188;2023-03-02T09:30:59;10.70;99.90
9209;DHT22;4639;48.862;9.188;2023-03-02T09:33:27;10.80;99.90
9209;DHT22;4639;48.862;9.188;2023-03-02T09:35:53;11.00;99.90
9209;DHT22;4639;48.862;9.188;2023-03-02T09:38:18;11.10;99.90
9209;DHT22;4639;48.862;9.188;2023-03-02T09:43:34;11.40;99.90
9209;DHT22;4639;48.862;9.188;2023-03-02T09:49:04;11.30;99.90
9209;DHT22;4639;48.862;9.188;2023-03-02T09:51:32;11.60;99.90
9209;DHT22;4639;48.862;9.188;2023-03-02T09:54:11;11.80;99.90
9209;DHT22;4639;48.862;9.188;2023-03-02T09:56:49;11.70;99.90
9209;DHT22;4639;48.862;9.188;2023-03-02T09:59:19;11.40;99.90
9209;DHT22;4639;48.862;9.188;2023-03-02T10:01:52;11.40;99.90
9209;DHT22;4639;48.862;9.188;2023-03-02T10:04:25;11.40;99.90
9209;DHT22;4639;48.862;9.188;2023-03-02T10:06:57;11.30;99.90
9209;DHT22;4639;48.862;9.188;2023-03-02T10:09:25;11.40;99.90
9209;DHT22;4639;48.862;9.188;2023-03-02T10:12:07;11.90;99.90
9209;DHT22;4639;48.862;9.188;2023-03-02T10:14:56;12.30;99.90
9209;DHT22;4639;48.862;9.188;2023-03-02T10:17:37;12.40;99.90
9209;DHT22;4639;48.862;9.188;2023-03-02T10:20:29;12.40;99.90
9209;DHT22;4639;48.862;9.188;2023-03-02T10:31:29;12.80;99.90
9209;DHT22;4639;48.862;9.188;2023-03-02T10:33:55;13.20;99.90
9209;DHT22;4639;48.862;9.188;2023-03-02T10:36:25;12.90;99.90
9209;DHT22;4639;48.862;9.188;2023-03-02T10:38:53;12.50;99.90
9209;DHT22;4639;48.862;9.188;2023-03-02T10:41:29;12.20;99.90
9209;DHT22;4639;48.862;9.188;2023-03-02T10:44:02;12.10;99.90
9209;DHT22;4639;48.862;9.188;2023-03-02T10:46:43;12.10;99.90
9209;DHT22;4639;48.862;9.188;2023-03-02T10:49:28;12.30;99.90
9209;DHT22;4639;48.862;9.188;2023-03-02T10:54:28;13.10;99.90
9209;DHT22;4639;48.862;9.188;2023-03-02T10:57:01;13.40;99.90
9209;DHT22;4639;48.862;9.188;2023-03-02T10:59:44;13.60;99.90
9209;DHT22;4639;48.862;9.188;2023-03-02T11:02:20;13.50;99.90
9209;DHT22;4639;48.862;9.188;2023-03-02T11:10:28;12.80;99.90
9209;DHT22;4639;48.862;9.188;2023-03-02T11:12:56;12.70;99.90
9209;DHT22;4639;48.862;9.188;2023-03-02T11:18:10;12.90;99.90
9209;DHT22;4639;48.862;9.188;2023-03-02T11:20:43;12.50;99.90
9209;DHT22;4639;48.862;9.188;2023-03-02T11:23:29;12.50;99.90
9209;DHT22;4639;48.862;9.188;2023-03-02T11:26:11;12.80;99.90
9209;DHT22;4639;48.862;9.188;2023-03-02T11:31:21;12.60;99.90
9209;DHT22;4639;48.862;9.188;2023-03-02T11:34:18;12.40;99.90
9209;DHT22;4639;48.862;9.188;2023-03-02T11:39:49;12.60;99.90
9209;DHT22;4639;48.862;9.188;2023-03-02T11:42:38;13.00;99.90
9209;DHT22;4639;48.862;9.188;2023-03-02T11:47:41;13.10;99.90
9209;DHT22;4639;48.862;9.188;2023-03-02T11:50:11;12.60;99.90
9209;DHT22;4639;48.862;9.188;2023-03-02T11:52:43;12.60;99.90
9209;DHT22;4639;48.862;9.188;2023-03-02T11:55:16;12.40;99.90
9209;DHT22;4639;48.862;9.188;2023-03-02T11:57:56;12.20;99.90
9209;DHT22;4639;48.862;9.188;2023-03-02T12:03:18;12.70;99.90
9209;DHT22;4639;48.862;9.188;2023-03-02T12:13:35;13.90;99.90
9209;DHT22;4639;48.862;9.188;2023-03-02T12:16:02;14.00;99.90
9209;DHT22;4639;48.862;9.188;2023-03-02T12:18:30;14.10;99.90
9209;DHT22;4639;48.862;9.188;2023-03-02T12:21:13;14.20;99.90
9209;DHT22;4639;48.862;9.188;2023-03-02T12:23:53;14.00;99.90
9209;DHT22;4639;48.862;9.188;2023-03-02T12:31:42;14.70;99.90
9209;DHT22;4639;48.862;9.188;2023-03-02T12:34:33;14.90;99.90
9209;DHT22;4639;48.862;9.188;2023-03-02T12:37:27;14.90;99.90
9209;DHT22;4639;48.862;9.188;2023-03-02T12:51:44;14.70;99.90
9209;DHT22;4639;48.862;9.188;2023-03-02T12:54:14;14.80;99.90
9209;DHT22;4639;48.862;9.188;2023-03-02T12:56:40;14.90;99.90
9209;DHT22;4639;48.862;9.188;2023-03-02T12:59:06;15.10;99.90
9209;DHT22;4639;48.862;9.188;2023-03-02T13:01:32;15.20;99.90
9209;DHT22;4639;48.862;9.188;2023-03-02T13:03:58;15.30;99.90
9209;DHT22;4639;48.862;9.188;2023-03-02T13:06:26;15.00;99.90
9209;DHT22;4639;48.862;9.188;2023-03-02T13:08:55;14.70;99.90
9209;DHT22;4639;48.862;9.188;2023-03-02T13:11:30;14.60;99.90
9209;DHT22;4639;48.862;9.188;2023-03-02T13:14:00;14.30;99.90
9209;DHT22;4639;48.862;9.188;2023-03-02T13:16:32;14.10;99.90
9209;DHT22;4639;48.862;9.188;2023-03-02T13:19:01;14.20;99.90
9209;DHT22;4639;48.862;9.188;2023-03-02T13:21:31;13.90;99.90
9209;DHT22;4639;48.862;9.188;2023-03-02T13:23:57;13.60;99.90
9209;DHT22;4639;48.862;9.188;2023-03-02T13:26:32;13.60;99.90
9209;DHT22;4639;48.862;9.188;2023-03-02T13:29:04;13.80;99.90
9209;DHT22;4639;48.862;9.188;2023-03-02T13:31:31;13.60;99.90
9209;DHT22;4639;48.862;9.188;2023-03-02T13:33:57;13.40;99.90
9209;DHT22;4639;48.862;9.188;2023-03-02T13:36:29;13.20;99.90
9209;DHT22;4639;48.862;9.188;2023-03-02T13:38:57;13.00;99.90
9209;DHT22;4639;48.862;9.188;2023-03-02T13:41:29;13.00;99.90
9209;DHT22;4639;48.862;9.188;2023-03-02T13:43:56;12.90;99.90
9209;DHT22;4639;48.862;9.188;2023-03-02T13:49:23;13.30;99.90
9209;DHT22;4639;48.862;9.188;2023-03-02T13:51:57;13.70;99.90
9209;DHT22;4639;48.862;9.188;2023-03-02T13:54:28;13.90;99.90
9209;DHT22;4639;48.862;9.188;2023-03-02T13:56:56;13.80;99.90
9209;DHT22;4639;48.862;9.188;2023-03-02T13:59:23;13.10;99.90
9209;DHT22;4639;48.862;9.188;2023-03-02T14:01:49;12.70;99.90
9209;DHT22;4639;48.862;9.188;2023-03-02T14:04:17;12.80;99.90
9209;DHT22;4639;48.862;9.188;2023-03-02T14:06:46;13.10;99.90
9209;DHT22;4639;48.862;9.188;2023-03-02T14:09:12;13.60;99.90
9209;DHT22;4639;48.862;9.188;2023-03-02T14:11:41;14.00;99.90
9209;DHT22;4639;48.862;9.188;2023-03-02T14:14:11;14.20;99.90
9209;DHT22;4639;48.862;9.188;2023-03-02T14:16:38;14.20;99.90
9209;DHT22;4639;48.862;9.188;2023-03-02T14:19:04;14.40;99.90
9209;DHT22;4639;48.862;9.188;2023-03-02T14:21:29;14.50;99.90
9209;DHT22;4639;48.862;9.188;2023-03-02T14:23:55;14.50;99.90
9209;DHT22;4639;48.862;9.188;2023-03-02T14:26:31;14.60;99.90
9209;DHT22;4639;48.862;9.188;2023-03-02T14:29:15;14.60;99.90
9209;DHT22;4639;48.862;9.188;2023-03-02T14:31:44;14.60;99.90
9209;DHT22;4639;48.862;9.188;2023-03-02T14:34:13;14.60;99.90
9209;DHT22;4639;48.862;9.188;2023-03-02T14:36:39;14.60;99.90
9209;DHT22;4639;48.862;9.188;2023-03-02T14:39:17;14.30;99.90
9209;DHT22;4639;48.862;9.188;2023-03-02T14:41:44;14.30;99.90
9209;DHT22;4639;48.862;9.188;2023-03-02T14:44:10;13.60;99.90
9209;DHT22;4639;48.862;9.188;2023-03-02T14:46:36;13.40;99.90
9209;DHT22;4639;48.862;9.188;2023-03-02T14:49:01;13.40;99.90
9209;DHT22;4639;48.862;9.188;2023-03-02T14:51:30;13.50;99.90
9209;DHT22;4639;48.862;9.188;2023-03-02T14:53:58;13.40;99.90
9209;DHT22;4639;48.862;9.188;2023-03-02T14:56:25;13.40;99.90
9209;DHT22;4639;48.862;9.188;2023-03-02T14:58:51;13.20;99.90
9209;DHT22;4639;48.862;9.188;2023-03-02T15:01:18;12.80;99.90
9209;DHT22;4639;48.862;9.188;2023-03-02T15:03:44;12.70;99.90
9209;DHT22;4639;48.862;9.188;2023-03-02T15:08:48;12.60;99.90
9209;DHT22;4639;48.862;9.188;2023-03-02T15:11:14;12.70;99.90
9209;DHT22;4639;48.862;9.188;2023-03-02T15:13:39;12.70;99.90
9209;DHT22;4639;48.862;9.188;2023-03-02T15:16:08;13.10;99.90
9209;DHT22;4639;48.862;9.188;2023-03-02T15:18:33;13.40;99.90
9209;DHT22;4639;48.862;9.188;2023-03-02T15:21:00;13.30;99.90
9209;DHT22;4639;48.862;9.188;2023-03-02T15:23:25;12.90;99.90
9209;DHT22;4639;48.862;9.188;2023-03-02T15:25:51;12.80;99.90
9209;DHT22;4639;48.862;9.188;2023-03-02T15:28:16;12.60;99.90
9209;DHT22;4639;48.862;9.188;2023-03-02T15:30:42;12.50;99.90
9209;DHT22;4639;48.862;9.188;2023-03-02T15:33:08;12.20;99.90
9209;DHT22;4639;48.862;9.188;2023-03-02T15:35:33;12.40;99.90
9209;DHT22;4639;48.862;9.188;2023-03-02T15:38:02;12.20;99.90
9209;DHT22;4639;48.862;9.188;2023-03-02T15:40:28;12.20;99.90
9209;DHT22;4639;48.862;9.188;2023-03-02T15:42:54;12.20;99.90
9209;DHT22;4639;48.862;9.188;2023-03-02T15:45:20;12.60;99.90
9209;DHT22;4639;48.862;9.188;2023-03-02T15:47:45;12.60;99.90
9209;DHT22;4639;48.862;9.188;2023-03-02T15:50:11;12.70;99.90
9209;DHT22;4639;48.862;9.188;2023-03-02T15:52:37;12.90;99.90
9209;DHT22;4639;48.862;9.188;2023-03-02T15:55:03;12.80;99.90
9209;DHT22;4639;48.862;9.188;2023-03-02T15:57:28;12.70;99.90
9209;DHT22;4639;48.862;9.188;2023-03-02T15:59:54;12.50;99.90
9209;DHT22;4639;48.862;9.188;2023-03-02T16:02:19;12.60;99.90
9209;DHT22;4639;48.862;9.188;2023-03-02T16:04:45;12.50;99.90
9209;DHT22;4639;48.862;9.188;2023-03-02T16:07:11;12.50;99.90
9209;DHT22;4639;48.862;9.188;2023-03-02T16:09:36;12.40;99.90
9209;DHT22;4639;48.862;9.188;2023-03-02T16:12:02;12.30;99.90
9209;DHT22;4639;48.862;9.188;2023-03-02T16:14:27;12.20;99.90
9209;DHT22;4639;48.862;9.188;2023-03-02T16:16:53;12.20;99.90
9209;DHT22;4639;48.862;9.188;2023-03-02T16:19:19;12.10;99.90
9209;DHT22;4639;48.862;9.188;2023-03-02T16:21:45;11.90;99.90
9209;DHT22;4639;48.862;9.188;2023-03-02T16:24:11;11.70;99.90
9209;DHT22;4639;48.862;9.188;2023-03-02T16:26:37;11.60;99.90
9209;DHT22;4639;48.862;9.188;2023-03-02T16:29:04;11.50;99.90
9209;DHT22;4639;48.862;9.188;2023-03-02T16:31:30;11.20;99.90
9209;DHT22;4639;48.862;9.188;2023-03-02T16:33:57;10.90;99.90
9209;DHT22;4639;48.862;9.188;2023-03-02T16:36:24;10.70;99.90
9209;DHT22;4639;48.862;9.188;2023-03-02T16:38:50;10.60;99.90
9209;DHT22;4639;48.862;9.188;2023-03-02T16:41:21;10.50;99.90
9209;DHT22;4639;48.862;9.188;2023-03-02T16:43:52;10.40;99.90
9209;DHT22;4639;48.862;9.188;2023-03-02T16:46:19;10.40;99.90
9209;DHT22;4639;48.862;9.188;2023-03-02T16:48:48;10.30;99.90
9209;DHT22;4639;48.862;9.188;2023-03-02T16:51:14;10.20;99.90
9209;DHT22;4639;48.862;9.188;2023-03-02T16:53:40;10.10;99.90
9209;DHT22;4639;48.862;9.188;2023-03-02T16:56:07;10.10;99.90
9209;DHT22;4639;48.862;9.188;2023-03-02T16:58:33;10.10;99.90
9209;DHT22;4639;48.862;9.188;2023-03-02T17:01:00;9.90;99.90
9209;DHT22;4639;48.862;9.188;2023-03-02T17:03:26;9.60;99.90
9209;DHT22;4639;48.862;9.188;2023-03-02T17:05:51;9.50;99.90
9209;DHT22;4639;48.862;9.188;2023-03-02T17:08:17;9.40;99.90
9209;DHT22;4639;48.862;9.188;2023-03-02T17:10:43;9.20;99.90
9209;DHT22;4639;48.862;9.188;2023-03-02T17:13:08;9.20;99.90
9209;DHT22;4639;48.862;9.188;2023-03-02T17:15:36;9.30;99.90
9209;DHT22;4639;48.862;9.188;2023-03-02T17:18:02;9.30;99.90
9209;DHT22;4639;48.862;9.188;2023-03-02T17:20:28;9.10;99.90
9209;DHT22;4639;48.862;9.188;2023-03-02T17:22:56;9.00;99.90
9209;DHT22;4639;48.862;9.188;2023-03-02T17:25:22;9.00;99.90
9209;DHT22;4639;48.862;9.188;2023-03-02T17:27:47;9.10;99.90
9209;DHT22;4639;48.862;9.188;2023-03-02T17:30:16;9.20;99.90
9209;DHT22;4639;48.862;9.188;2023-03-02T17:32:42;9.30;99.90
9209;DHT22;4639;48.862;9.188;2023-03-02T17:35:11;9.40;99.90
9209;DHT22;4639;48.862;9.188;2023-03-02T17:37:37;9.30;99.90
9209;DHT22;4639;48.862;9.188;2023-03-02T17:40:03;9.10;99.90